Time;durP1;ratioP1;P1;durP2;ratioP2;P2;SDS_P1;SDS_P2;PMS_P1;PMS_P2;Temp;Humidity;BMP_temperature;BMP_pressure;BME280_temperature;BME280_humidity;BME280_pressure;Samples;Min_cycle;Max_cycle;Signal;HPM_P1;HPM_P2
2023/01/18 00:01:07;;;;;;;5.70;2.95;;;1.40;99.90;;;;;;5074664;28;20044;-67
2023/01/18 00:03:33;;;;;;;6.13;3.72;;;1.30;99.90;;;;;;5074641;28;20037;-67
2023/01/18 00:06:01;;;;;;;3.92;3.30;;;0.90;99.90;;;;;;5075134;28;20365;-67
2023/01/18 00:08:29;;;;;;;4.43;3.33;;;1.00;99.90;;;;;;5073262;28;20062;-67
2023/01/18 00:11:08;;;;;;;4.18;3.85;;;0.90;99.90;;;;;;5074143;28;20040;-67
2023/01/18 00:13:34;;;;;;;3.58;3.28;;;0.80;99.90;;;;;;5074924;28;20040;-67
2023/01/18 00:16:04;;;;;;;4.47;3.58;;;0.80;99.90;;;;;;5074055;28;20041;-67
2023/01/18 00:18:30;;;;;;;3.90;3.50;;;1.00;99.90;;;;;;5073581;28;20381;-67
2023/01/18 00:21:00;;;;;;;4.30;3.72;;;1.00;99.90;;;;;;5074580;28;20085;-68
2023/01/18 00:23:26;;;;;;;5.10;4.20;;;1.40;99.90;;;;;;5073910;28;20119;-68
2023/01/18 00:25:52;;;;;;;4.05;3.58;;;0.90;99.90;;;;;;5074205;28;20366;-67
2023/01/18 00:28:21;;;;;;;6.07;4.60;;;0.70;99.90;;;;;;5074325;28;20123;-68
2023/01/18 00:30:47;;;;;;;4.28;3.88;;;0.70;99.90;;;;;;5074445;28;20048;-67
2023/01/18 00:33:13;;;;;;;4.13;3.72;;;0.70;99.90;;;;;;5074351;28;20048;-67
2023/01/18 00:35:38;;;;;;;4.10;3.65;;;0.70;99.90;;;;;;5073778;28;20040;-67
2023/01/18 00:38:05;;;;;;;5.13;3.75;;;1.20;99.90;;;;;;5073706;28;20044;-67
2023/01/18 00:40:30;;;;;;;9.45;4.82;;;0.60;99.90;;;;;;5073729;28;20080;-67
2023/01/18 00:45:41;;;;;;;7.20;4.47;;;0.70;99.90;;;;;;5073377;28;20063;-67
2023/01/18 00:48:06;;;;;;;6.20;4.38;;;0.70;99.90;;;;;;5056794;28;20054;-67
2023/01/18 00:50:32;;;;;;;4.00;3.60;;;0.70;99.90;;;;;;5074159;28;20044;-67
2023/01/18 00:52:58;;;;;;;6.00;4.13;;;1.10;99.90;;;;;;5055841;28;20151;-67
2023/01/18 00:55:24;;;;;;;5.30;4.25;;;0.70;99.90;;;;;;5073405;28;20036;-68
2023/01/18 00:57:50;;;;;;;4.13;3.72;;;0.70;99.90;;;;;;5073529;28;20044;-67
2023/01/18 01:00:23;;;;;;;4.80;4.07;;;1.80;99.90;;;;;;5056147;28;20063;-67
2023/01/18 01:02:50;;;;;;;5.93;3.95;;;0.60;99.90;;;;;;5073370;28;20355;-68
2023/01/18 01:08:05;;;;;;;4.72;3.88;;;0.60;99.90;;;;;;5073424;28;20044;-67
2023/01/18 01:10:34;;;;;;;7.20;4.50;;;0.60;99.90;;;;;;5055732;28;20036;-68
2023/01/18 01:26:42;;;;;;;5.53;4.60;;;0.50;99.90;;;;;;5077613;28;20530;-67
2023/01/18 01:29:08;;;;;;;5.35;4.47;;;0.40;99.90;;;;;;5077678;28;20141;-69
2023/01/18 01:31:33;;;;;;;5.32;4.72;;;0.40;99.90;;;;;;5077747;28;20068;-68
2023/01/18 01:33:59;;;;;;;5.40;4.78;;;0.40;99.90;;;;;;5076894;28;20040;-68
2023/01/18 01:36:26;;;;;;;6.10;4.97;;;1.00;99.90;;;;;;5077158;28;20364;-68
2023/01/18 01:38:53;;;;;;;6.05;4.05;;;0.40;99.90;;;;;;5076688;28;20102;-68
2023/01/18 01:41:24;;;;;;;6.18;5.03;;;0.40;99.90;;;;;;5076728;28;20051;-68
2023/01/18 01:44:19;;;;;;;5.93;5.32;;;0.50;99.90;;;;;;5077504;28;20044;-68
2023/01/18 01:46:51;;;;;;;6.30;5.03;;;1.10;99.90;;;;;;5075835;28;20061;-68
2023/01/18 01:49:18;;;;;;;6.88;4.90;;;0.40;99.90;;;;;;5076614;28;20480;-68
2023/01/18 01:51:47;;;;;;;6.72;5.63;;;1.20;99.90;;;;;;5077152;28;20045;-68
2023/01/18 01:54:24;;;;;;;5.95;5.32;;;1.50;99.90;;;;;;5076996;28;20408;-68
2023/01/18 01:56:53;;;;;;;6.03;5.43;;;0.90;99.90;;;;;;5076472;28;20079;-68
2023/01/18 01:59:19;;;;;;;6.70;5.63;;;0.50;99.90;;;;;;5076353;28;20047;-68
2023/01/18 02:01:46;;;;;;;7.38;6.40;;;0.70;99.90;;;;;;5076343;28;20037;-68
2023/01/18 02:04:12;;;;;;;5.47;4.90;;;1.10;99.90;;;;;;5076322;28;20056;-69
2023/01/18 02:06:38;;;;;;;5.93;5.43;;;0.70;99.90;;;;;;5076407;28;20045;-68
2023/01/18 02:09:07;;;;;;;6.57;5.75;;;1.40;99.90;;;;;;5058292;28;20054;-69
2023/01/18 02:11:34;;;;;;;7.28;5.85;;;0.40;99.90;;;;;;5076142;28;20040;-69
2023/01/18 02:14:03;;;;;;;6.90;6.22;;;1.50;99.90;;;;;;5058395;28;20377;-69
2023/01/18 02:16:36;;;;;;;5.65;4.90;;;0.30;99.90;;;;;;5058456;28;20051;-69
2023/01/18 02:19:20;;;;;;;6.93;5.65;;;0.30;99.90;;;;;;5076499;28;20531;-69
2023/01/18 02:21:55;;;;;;;6.20;5.60;;;0.30;99.90;;;;;;5076204;28;20048;-69
2023/01/18 02:24:38;;;;;;;5.40;4.90;;;0.30;99.90;;;;;;5059246;28;20051;-68
2023/01/18 02:27:23;;;;;;;6.55;5.85;;;0.30;99.90;;;;;;5059282;28;20354;-69
2023/01/18 02:30:10;;;;;;;7.57;5.80;;;0.30;99.90;;;;;;5075206;28;20051;-69
2023/01/18 02:32:58;;;;;;;6.40;5.60;;;0.30;99.90;;;;;;5076711;28;20123;-69
2023/01/18 02:35:55;;;;;;;6.53;5.93;;;0.20;99.90;;;;;;5076284;28;20418;-69
2023/01/18 02:38:35;;;;;;;6.40;5.20;;;0.20;99.90;;;;;;5057750;28;20091;-69
2023/01/18 02:46:29;;;;;;;10.73;6.18;;;0.30;99.90;;;;;;5058495;28;20049;-69
2023/01/18 02:47:09;;;;;;;7.20;6.60;;;0.20;99.90;;;;;;5054932;28;20095;-69
2023/01/18 02:49:35;;;;;;;6.07;5.47;;;1.20;99.90;;;;;;5055690;28;20386;-68
2023/01/18 02:52:06;;;;;;;9.63;6.05;;;0.60;99.90;;;;;;5055666;28;20416;-69
2023/01/18 02:54:36;;;;;;;5.43;4.68;;;0.20;99.90;;;;;;5055849;28;20064;-69
2023/01/18 02:57:08;;;;;;;6.45;5.85;;;1.50;99.90;;;;;;5054439;28;20037;-67
2023/01/18 02:59:42;;;;;;;6.57;5.97;;;0.20;99.90;;;;;;5056230;28;20091;-68
2023/01/18 03:02:13;;;;;;;6.88;6.15;;;0.80;99.90;;;;;;5055240;28;20055;-68
2023/01/18 03:04:39;;;;;;;8.65;5.72;;;0.70;99.90;;;;;;5054995;28;20473;-68
2023/01/18 03:07:24;;;;;;;8.85;6.10;;;1.90;99.90;;;;;;5055272;28;20045;-68
2023/01/18 03:09:51;;;;;;;6.55;5.90;;;0.30;99.90;;;;;;5055292;28;20037;-68
2023/01/18 03:12:45;;;;;;;6.53;5.93;;;0.30;99.90;;;;;;5056011;28;20071;-68
2023/01/18 03:15:29;;;;;;;9.43;6.65;;;0.30;99.90;;;;;;5055259;28;20124;-68
2023/01/18 03:17:56;;;;;;;;;;;0.20;99.90;;;;;;5054985;28;20036;-68
2023/01/18 03:20:26;;;;;;;7.00;6.30;;;0.10;99.90;;;;;;5055087;28;20400;-68
2023/01/18 03:25:45;;;;;;;8.15;6.78;;;0.50;99.90;;;;;;5055565;28;20120;-67
2023/01/18 03:34:39;;;;;;;6.70;6.00;;;1.10;99.90;;;;;;5054781;28;20053;-68
2023/01/18 03:37:12;;;;;;;6.78;6.15;;;0.20;99.90;;;;;;5055609;28;20056;-68
2023/01/18 03:39:42;;;;;;;9.07;6.20;;;0.30;99.90;;;;;;5055095;28;20190;-68
2023/01/18 03:42:13;;;;;;;7.93;6.10;;;1.10;99.90;;;;;;5054777;28;20088;-68
2023/01/18 03:44:50;;;;;;;7.30;6.55;;;0.80;99.90;;;;;;5055343;28;20052;-68
2023/01/18 03:47:16;;;;;;;6.75;5.80;;;0.30;99.90;;;;;;5034647;28;20467;-68
2023/01/18 03:49:42;;;;;;;7.15;6.00;;;0.20;99.90;;;;;;5035394;28;20042;-67
2023/01/18 03:52:38;;;;;;;7.88;6.20;;;0.30;99.90;;;;;;5034484;28;20132;-68
2023/01/18 03:55:24;;;;;;;6.05;5.45;;;0.20;99.90;;;;;;5035344;28;20041;-68
2023/01/18 03:58:08;;;;;;;7.28;6.28;;;0.20;99.90;;;;;;5034531;28;20033;-68
2023/01/18 04:00:35;;;;;;;8.15;7.03;;;0.30;99.90;;;;;;5034155;28;20045;-68
2023/01/18 04:03:00;;;;;;;8.13;6.20;;;0.20;99.90;;;;;;5034213;28;20099;-68
2023/01/18 04:05:26;;;;;;;6.82;6.05;;;0.20;99.90;;;;;;5034301;28;20500;-68
2023/01/18 04:07:52;;;;;;;8.63;6.57;;;0.80;99.90;;;;;;5034267;28;20029;-68
2023/01/18 04:10:18;;;;;;;7.40;6.70;;;0.90;99.90;;;;;;5033789;28;20045;-68
2023/01/18 04:12:43;;;;;;;6.72;6.07;;;0.20;99.90;;;;;;5034144;28;20115;-68
2023/01/18 04:15:09;;;;;;;8.77;6.55;;;1.00;99.90;;;;;;5034409;28;20128;-67
2023/01/18 04:17:35;;;;;;;8.40;6.75;;;0.10;99.90;;;;;;5034919;28;20048;-68
2023/01/18 04:20:01;;;;;;;7.90;6.72;;;0.10;99.90;;;;;;5033787;28;20042;-67
2023/01/18 04:22:27;;;;;;;10.80;7.57;;;0.10;99.90;;;;;;5033105;28;20081;-67
2023/01/18 04:24:52;;;;;;;9.85;8.13;;;0.10;99.90;;;;;;5034040;28;20081;-67
2023/01/18 04:27:18;;;;;;;9.73;7.45;;;0.70;99.90;;;;;;5033936;28;20096;-67
2023/01/18 04:29:44;;;;;;;8.00;7.10;;;0.10;99.90;;;;;;5033911;28;20041;-68
2023/01/18 04:32:09;;;;;;;8.38;7.55;;;0.10;99.90;;;;;;5033650;28;20045;-68
2023/01/18 04:34:35;;;;;;;9.98;7.88;;;1.40;99.90;;;;;;5033893;28;20424;-68
2023/01/18 04:37:01;;;;;;;8.20;7.32;;;0.10;99.90;;;;;;5033317;28;20041;-68
2023/01/18 04:39:27;;;;;;;10.00;7.78;;;0.10;99.90;;;;;;5034104;28;20042;-68
2023/01/18 04:41:52;;;;;;;8.98;7.10;;;0.00;99.90;;;;;;5033806;28;20049;-68
2023/01/18 04:44:18;;;;;;;9.55;6.82;;;1.40;99.90;;;;;;5033710;28;20110;-68
2023/01/18 04:46:44;;;;;;;11.75;8.35;;;0.00;99.90;;;;;;5066423;28;20063;-68
2023/01/18 04:49:14;;;;;;;12.25;8.43;;;0.00;99.90;;;;;;5073845;28;20041;-68
2023/01/18 04:51:40;;;;;;;9.25;8.35;;;0.00;99.90;;;;;;5055706;28;20033;-68
2023/01/18 04:54:07;;;;;;;8.63;7.80;;;0.00;99.90;;;;;;5072985;28;20044;-68
2023/01/18 04:56:33;;;;;;;12.88;8.75;;;0.00;99.90;;;;;;5073483;28;20048;-68
2023/01/18 04:58:59;;;;;;;8.43;7.20;;;0.00;99.90;;;;;;5073563;28;20102;-67
2023/01/18 05:01:25;;;;;;;8.23;7.32;;;0.00;99.90;;;;;;5073518;28;20037;-67
2023/01/18 05:03:53;;;;;;;8.95;8.00;;;0.00;99.90;;;;;;5073259;28;20036;-68
2023/01/18 05:06:19;;;;;;;9.43;7.85;;;0.00;99.90;;;;;;5073965;28;20045;-68
2023/01/18 05:08:45;;;;;;;10.35;7.63;;;0.40;99.90;;;;;;5055315;28;20102;-68
2023/01/18 05:11:16;;;;;;;11.40;8.23;;;0.00;99.90;;;;;;5056037;28;20123;-67
2023/01/18 05:13:42;;;;;;;9.90;7.40;;;0.40;99.90;;;;;;5073592;28;20044;-68
2023/01/18 05:16:17;;;;;;;10.68;7.80;;;0.30;99.90;;;;;;5073377;28;20041;-68
2023/01/18 05:18:43;;;;;;;11.05;7.35;;;0.00;99.90;;;;;;5073321;28;20037;-68
2023/01/18 05:21:10;;;;;;;8.43;7.40;;;0.10;99.90;;;;;;5073311;28;20051;-68
2023/01/18 05:23:35;;;;;;;8.73;7.57;;;0.40;99.90;;;;;;5073135;28;20041;-68
2023/01/18 05:26:03;;;;;;;8.30;7.50;;;-0.10;99.90;;;;;;5055593;28;20097;-68
2023/01/18 05:28:29;;;;;;;7.93;7.22;;;-0.10;99.90;;;;;;5073282;28;20044;-68
2023/01/18 05:30:54;;;;;;;8.73;7.75;;;0.90;99.90;;;;;;5055552;28;20085;-68
2023/01/18 05:33:21;;;;;;;8.60;7.68;;;-0.10;99.90;;;;;;5073244;28;20040;-67
2023/01/18 05:35:49;;;;;;;10.18;8.60;;;-0.10;99.90;;;;;;5073228;28;20040;-67
2023/01/18 05:38:15;;;;;;;12.85;9.80;;;-0.10;99.90;;;;;;5073117;28;20037;-68
2023/01/18 05:40:46;;;;;;;12.20;8.25;;;0.00;99.90;;;;;;5072876;28;20044;-68
2023/01/18 05:43:13;;;;;;;11.45;8.63;;;-0.10;99.90;;;;;;5073671;28;20045;-68
2023/01/18 05:45:41;;;;;;;9.73;7.53;;;0.70;99.90;;;;;;5072947;28;20055;-68
2023/01/18 05:48:07;;;;;;;9.15;7.68;;;-0.10;99.90;;;;;;5073074;28;20041;-67
2023/01/18 05:50:33;;;;;;;12.35;8.05;;;-0.10;99.90;;;;;;5073561;28;20089;-67
2023/01/18 05:52:59;;;;;;;10.20;8.85;;;0.40;99.90;;;;;;5055404;28;20047;-67
2023/01/18 05:55:25;;;;;;;9.35;8.23;;;1.00;99.90;;;;;;5072805;28;20041;-68
2023/01/18 05:57:51;;;;;;;11.32;8.27;;;1.30;99.90;;;;;;5073067;28;20369;-68
2023/01/18 06:00:17;;;;;;;10.73;8.52;;;-0.10;99.90;;;;;;5072309;28;20036;-67
2023/01/18 06:02:43;;;;;;;11.77;8.68;;;-0.10;99.90;;;;;;5073771;28;20036;-67
2023/01/18 06:05:10;;;;;;;10.50;8.35;;;-0.10;99.90;;;;;;5072292;28;20156;-68
2023/01/18 06:07:36;;;;;;;12.27;7.88;;;1.30;99.90;;;;;;5075818;28;20048;-68
2023/01/18 06:10:03;;;;;;;9.32;7.53;;;0.20;99.90;;;;;;5075566;28;20048;-68
2023/01/18 06:12:28;;;;;;;9.65;8.70;;;-0.10;99.90;;;;;;5075759;28;20048;-68
2023/01/18 06:14:54;;;;;;;8.88;7.65;;;0.30;99.90;;;;;;5075841;28;20055;-68
2023/01/18 06:17:20;;;;;;;12.05;9.00;;;-0.50;99.90;;;;;;5075429;28;20072;-68
2023/01/18 06:19:46;;;;;;;9.45;8.55;;;0.00;99.90;;;;;;5075875;28;20133;-68
2023/01/18 06:22:11;;;;;;;10.65;8.55;;;0.00;99.90;;;;;;5076490;28;20045;-68
2023/01/18 06:24:37;;;;;;;9.48;8.38;;;0.30;99.90;;;;;;5076528;28;20154;-68
2023/01/18 06:27:03;;;;;;;10.98;8.30;;;0.00;99.90;;;;;;5074528;28;20445;-68
2023/01/18 06:29:29;;;;;;;9.82;8.15;;;0.00;99.90;;;;;;5075101;28;20066;-68
2023/01/18 06:31:54;;;;;;;9.30;7.68;;;0.00;99.90;;;;;;5075468;28;20091;-68
2023/01/18 06:34:20;;;;;;;10.27;8.43;;;0.50;99.90;;;;;;5056995;28;20091;-68
2023/01/18 06:36:46;;;;;;;11.45;8.30;;;0.00;99.90;;;;;;5056768;28;20036;-69
2023/01/18 06:39:12;;;;;;;12.60;8.27;;;0.00;99.90;;;;;;5075016;28;20191;-68
2023/01/18 06:41:38;;;;;;;10.55;7.93;;;0.40;99.90;;;;;;5057516;28;20045;-67
2023/01/18 06:44:04;;;;;;;10.20;7.25;;;0.00;99.90;;;;;;5075035;28;20052;-68
2023/01/18 06:46:30;;;;;;;8.65;7.78;;;0.00;99.90;;;;;;5074279;28;20198;-68
2023/01/18 06:48:55;;;;;;;8.18;7.43;;;0.00;99.90;;;;;;5074263;28;20144;-68
2023/01/18 06:51:21;;;;;;;9.40;7.78;;;0.00;99.90;;;;;;5055946;28;20145;-68
2023/01/18 06:53:48;;;;;;;9.40;7.40;;;0.00;99.90;;;;;;5072833;28;20138;-68
2023/01/18 06:56:15;;;;;;;11.43;8.32;;;0.00;99.90;;;;;;5055312;28;20088;-68
2023/01/18 06:58:41;;;;;;;9.98;7.60;;;0.00;99.90;;;;;;5055637;28;20040;-68
2023/01/18 07:01:07;;;;;;;9.45;7.97;;;0.00;99.90;;;;;;5073972;28;20067;-69
2023/01/18 07:03:33;;;;;;;11.00;7.82;;;0.00;99.90;;;;;;5056631;28;20450;-67
2023/01/18 07:06:01;;;;;;;11.25;8.13;;;0.00;99.90;;;;;;5074355;28;20036;-68
2023/01/18 07:08:29;;;;;;;8.95;6.80;;;0.00;99.90;;;;;;5056624;28;20080;-68
2023/01/18 07:10:56;;;;;;;9.60;8.13;;;0.00;99.90;;;;;;5074991;28;20077;-67
2023/01/18 07:13:22;;;;;;;8.75;7.60;;;0.00;99.90;;;;;;5073917;28;20112;-68
2023/01/18 07:15:57;;;;;;;9.80;7.65;;;0.40;99.90;;;;;;5073790;28;20097;-67
2023/01/18 07:18:23;;;;;;;10.15;7.57;;;0.00;99.90;;;;;;5074344;28;20063;-67
2023/01/18 07:21:16;;;;;;;8.13;7.28;;;0.40;99.90;;;;;;5056069;28;20479;-67
2023/01/18 07:23:42;;;;;;;8.50;6.60;;;0.20;99.90;;;;;;5053156;28;20045;-67
2023/01/18 07:26:14;;;;;;;7.22;6.40;;;0.10;99.90;;;;;;5074631;28;20290;-67
2023/01/18 07:28:41;;;;;;;7.77;6.93;;;0.10;99.90;;;;;;5057009;28;20136;-67
2023/01/18 07:31:07;;;;;;;9.00;7.22;;;0.60;99.90;;;;;;5056777;28;20051;-68
2023/01/18 07:33:34;;;;;;;9.05;7.38;;;0.10;99.90;;;;;;5075127;28;20109;-68
2023/01/18 07:36:00;;;;;;;10.02;7.30;;;0.10;99.90;;;;;;5075492;28;20051;-67
2023/01/18 07:38:26;;;;;;;10.57;7.22;;;1.70;99.90;;;;;;5074274;28;20470;-67
2023/01/18 07:41:04;;;;;;;10.52;8.20;;;0.20;99.90;;;;;;5056794;28;20127;-67
2023/01/18 07:43:32;;;;;;;12.10;7.07;;;0.20;99.90;;;;;;5074342;28;20051;-67
2023/01/18 07:45:57;;;;;;;11.05;6.47;;;0.20;99.90;;;;;;5074217;28;20113;-67
2023/01/18 07:48:24;;;;;;;7.30;6.50;;;0.20;99.90;;;;;;5074205;28;20044;-67
2023/01/18 07:50:54;;;;;;;9.23;7.05;;;1.50;99.90;;;;;;5074394;28;20040;-68
2023/01/18 07:53:21;;;;;;;7.60;6.30;;;0.30;99.90;;;;;;5074693;28;20040;-68
2023/01/18 07:55:47;;;;;;;10.50;5.88;;;1.00;99.90;;;;;;5074241;28;20090;-68
2023/01/18 07:58:13;;;;;;;7.82;5.97;;;0.40;99.90;;;;;;5056178;28;20381;-69
2023/01/18 08:00:39;;;;;;;7.20;6.13;;;0.30;99.90;;;;;;5074713;28;20047;-68
2023/01/18 08:03:04;;;;;;;7.55;6.07;;;0.30;99.90;;;;;;5074351;28;20110;-68
2023/01/18 08:05:33;;;;;;;8.88;6.20;;;0.80;99.90;;;;;;5074538;28;20040;-68
2023/01/18 08:07:59;;;;;;;8.75;5.95;;;0.90;99.90;;;;;;5057283;28;20048;-68
2023/01/18 08:10:26;;;;;;;10.65;6.45;;;0.30;99.90;;;;;;5074556;28;20040;-68
2023/01/18 08:12:51;;;;;;;6.63;5.20;;;0.70;99.90;;;;;;5056655;28;20056;-68
2023/01/18 08:15:17;;;;;;;7.53;5.95;;;0.80;99.90;;;;;;5074141;28;20040;-68
2023/01/18 08:17:43;;;;;;;6.50;5.88;;;0.40;99.90;;;;;;5073759;28;20127;-68
2023/01/18 08:20:09;;;;;;;9.00;6.68;;;0.40;99.90;;;;;;5056476;28;20048;-68
2023/01/18 08:22:35;;;;;;;9.15;6.20;;;0.40;99.90;;;;;;5074398;28;20040;-68
2023/01/18 08:25:02;;;;;;;8.07;6.50;;;0.80;99.90;;;;;;5073796;28;20036;-68
2023/01/18 08:27:28;;;;;;;7.53;6.00;;;0.40;99.90;;;;;;5073479;28;20199;-68
2023/01/18 08:29:53;;;;;;;8.40;6.20;;;0.40;99.90;;;;;;5071999;28;20041;-68
2023/01/18 08:32:19;;;;;;;6.00;5.40;;;0.40;99.90;;;;;;5073383;28;20044;-68
2023/01/18 08:34:45;;;;;;;8.50;6.82;;;0.40;99.90;;;;;;5073621;28;20127;-68
2023/01/18 08:37:11;;;;;;;7.80;6.05;;;0.50;99.90;;;;;;5073572;28;20119;-68
2023/01/18 08:39:37;;;;;;;8.75;6.43;;;0.50;99.90;;;;;;5073250;28;20118;-68
2023/01/18 08:42:03;;;;;;;12.15;6.88;;;0.50;99.90;;;;;;5073459;28;20469;-68
2023/01/18 08:44:29;;;;;;;8.48;6.30;;;0.50;99.90;;;;;;5073553;28;20102;-68
2023/01/18 08:46:54;;;;;;;7.72;7.03;;;1.60;99.90;;;;;;5073167;28;20052;-68
2023/01/18 08:49:20;;;;;;;8.48;6.05;;;0.50;99.90;;;;;;5073418;28;20044;-68
2023/01/18 08:51:46;;;;;;;8.95;6.75;;;1.40;99.90;;;;;;5039181;28;20079;-68
2023/01/18 08:54:11;;;;;;;8.68;6.72;;;0.60;99.90;;;;;;5073703;28;20045;-68
2023/01/18 08:56:37;;;;;;;9.48;6.85;;;0.60;99.90;;;;;;5073429;28;20044;-68
2023/01/18 08:59:07;;;;;;;11.85;7.38;;;0.60;99.90;;;;;;5073450;28;20163;-68
2023/01/18 09:01:33;;;;;;;8.50;7.05;;;0.60;99.90;;;;;;5073305;28;20136;-68
2023/01/18 09:03:58;;;;;;;8.98;7.25;;;0.70;99.90;;;;;;5073549;28;20131;-67
2023/01/18 09:06:25;;;;;;;11.40;8.32;;;1.70;99.90;;;;;;5073704;28;20044;-66
2023/01/18 09:08:51;;;;;;;12.10;8.48;;;0.80;99.90;;;;;;5073367;28;20036;-68
2023/01/18 09:11:17;;;;;;;12.70;7.68;;;1.20;99.90;;;;;;5073234;28;20036;-68
2023/01/18 09:13:43;;;;;;;9.65;7.40;;;0.80;99.90;;;;;;5073376;28;20040;-68
2023/01/18 09:16:09;;;;;;;10.73;8.15;;;0.90;99.90;;;;;;5073536;28;20127;-68
2023/01/18 09:18:36;;;;;;;11.65;8.32;;;1.30;99.90;;;;;;5073831;28;20041;-68
2023/01/18 09:21:10;;;;;;;9.30;7.38;;;1.50;99.90;;;;;;5039030;28;20048;-68
2023/01/18 09:23:38;;;;;;;11.90;8.00;;;1.20;99.90;;;;;;5073173;28;20119;-69
2023/01/18 09:26:08;;;;;;;12.07;8.23;;;1.20;99.90;;;;;;5072814;28;20048;-69
2023/01/18 09:28:35;;;;;;;9.77;7.60;;;0.90;99.90;;;;;;5073266;28;20098;-68
2023/01/18 09:31:03;;;;;;;14.38;7.63;;;1.50;99.90;;;;;;5073910;28;20048;-68
2023/01/18 09:33:29;;;;;;;11.23;6.88;;;1.00;99.90;;;;;;5038828;28;20048;-68
2023/01/18 09:35:56;;;;;;;9.95;7.35;;;1.20;99.90;;;;;;5072994;28;20114;-68
2023/01/18 09:38:22;;;;;;;12.77;7.80;;;1.10;99.90;;;;;;5073782;28;20137;-67
2023/01/18 09:40:50;;;;;;;10.55;8.05;;;1.60;99.90;;;;;;5076065;28;20084;-68
2023/01/18 09:43:33;;;;;;;14.20;8.70;;;1.20;99.90;;;;;;5076935;28;20048;-68
2023/01/18 09:46:00;;;;;;;9.90;7.75;;;1.30;99.90;;;;;;5077072;28;20074;-68
2023/01/18 09:48:34;;;;;;;12.35;8.40;;;1.30;99.90;;;;;;5076498;28;20427;-68
2023/01/18 09:51:24;;;;;;;9.45;7.80;;;1.30;99.90;;;;;;5077607;28;20041;-68
2023/01/18 09:54:23;;;;;;;10.90;7.22;;;1.30;99.90;;;;;;5076092;28;20473;-68
2023/01/18 09:56:53;;;;;;;11.40;7.07;;;1.40;99.90;;;;;;5077180;28;20060;-68
2023/01/18 09:59:22;;;;;;;7.50;6.80;;;1.40;99.90;;;;;;5076517;28;20080;-68
2023/01/18 10:01:49;;;;;;;11.30;9.02;;;1.50;99.90;;;;;;5076150;28;20044;-68
2023/01/18 10:04:23;;;;;;;8.90;7.53;;;1.60;99.90;;;;;;5076582;28;20032;-68
2023/01/18 10:07:06;;;;;;;11.93;7.72;;;1.60;99.90;;;;;;5076533;28;20041;-68
2023/01/18 10:09:40;;;;;;;11.88;7.88;;;1.60;99.90;;;;;;5058214;28;20552;-67
2023/01/18 10:12:32;;;;;;;11.88;8.05;;;1.70;99.90;;;;;;5059563;28;20041;-69
2023/01/18 10:15:16;;;;;;;8.63;7.65;;;1.70;99.90;;;;;;5076891;28;20048;-67
2023/01/18 10:17:44;;;;;;;11.57;8.27;;;1.80;99.90;;;;;;5076501;28;20382;-67
2023/01/18 10:20:12;;;;;;;12.38;7.90;;;2.10;99.90;;;;;;5075556;28;20470;-67
2023/01/18 10:22:57;;;;;;;9.57;7.97;;;1.90;99.90;;;;;;5076172;28;20094;-67
2023/01/18 10:25:47;;;;;;;9.60;6.72;;;1.90;99.90;;;;;;5076381;28;20102;-68
2023/01/18 10:28:40;;;;;;;9.65;8.05;;;1.90;99.90;;;;;;5076183;28;20366;-68
2023/01/18 10:31:25;;;;;;;10.07;7.78;;;2.00;99.90;;;;;;5076047;28;20050;-67
2023/01/18 10:33:57;;;;;;;9.25;6.95;;;2.10;99.90;;;;;;5075372;28;20040;-67
2023/01/18 10:36:32;;;;;;;10.63;7.30;;;2.40;99.90;;;;;;5075205;28;20051;-68
2023/01/18 10:39:01;;;;;;;10.20;7.10;;;2.20;99.90;;;;;;5075210;28;20062;-68
2023/01/18 10:41:33;;;;;;;23.23;7.75;;;2.30;99.90;;;;;;5075155;28;20159;-67
2023/01/18 10:44:00;;;;;;;8.27;6.72;;;2.70;99.90;;;;;;5076092;28;20037;-68
2023/01/18 10:46:26;;;;;;;9.40;7.00;;;2.30;99.90;;;;;;5074925;28;20048;-68
2023/01/18 10:48:58;;;;;;;6.97;6.35;;;2.70;99.90;;;;;;5075065;28;20047;-67
2023/01/18 10:51:26;;;;;;;10.43;7.32;;;2.50;99.90;;;;;;5074667;28;20033;-68
2023/01/18 10:53:52;;;;;;;7.85;6.63;;;2.50;99.90;;;;;;5074718;28;20087;-67
2023/01/18 10:56:20;;;;;;;11.25;7.38;;;2.60;99.90;;;;;;5074685;28;20043;-68
2023/01/18 10:58:49;;;;;;;8.85;5.72;;;2.60;99.90;;;;;;5074560;28;20036;-67
2023/01/18 11:01:24;;;;;;;7.63;6.68;;;2.70;99.90;;;;;;5075448;28;20067;-68
2023/01/18 11:03:51;;;;;;;7.95;7.15;;;2.70;99.90;;;;;;5075024;28;20044;-68
2023/01/18 11:06:19;;;;;;;8.35;6.47;;;2.80;99.90;;;;;;5073856;28;20489;-68
2023/01/18 11:08:46;;;;;;;10.93;6.50;;;3.10;99.90;;;;;;5057150;28;20036;-68
2023/01/18 11:14:29;;;;;;;12.57;6.00;;;2.90;99.90;;;;;;5075004;28;20369;-68
2023/01/18 11:17:10;;;;;;;6.50;5.85;;;3.00;99.90;;;;;;5074521;28;20529;-67
2023/01/18 11:19:36;;;;;;;6.60;5.88;;;3.00;99.90;;;;;;5074818;28;20080;-67
2023/01/18 11:22:09;;;;;;;10.45;6.88;;;3.10;99.90;;;;;;5074281;28;20055;-67
2023/01/18 11:24:36;;;;;;;9.98;5.65;;;3.20;99.90;;;;;;5074945;28;20430;-67
2023/01/18 11:27:15;;;;;;;8.18;6.25;;;3.20;99.90;;;;;;5074497;28;20426;-67
2023/01/18 11:29:43;;;;;;;6.38;5.88;;;3.20;99.90;;;;;;5056222;28;20041;-68
2023/01/18 11:32:25;;;;;;;8.80;6.38;;;3.20;99.90;;;;;;5074619;28;20074;-67
2023/01/18 11:34:54;;;;;;;9.70;6.50;;;3.30;99.90;;;;;;5074009;28;20400;-67
2023/01/18 11:37:42;;;;;;;6.10;5.50;;;3.40;99.90;;;;;;5073827;28;20040;-68
2023/01/18 11:40:26;;;;;;;8.02;5.90;;;3.40;99.90;;;;;;5073748;28;20086;-68
2023/01/18 11:43:12;;;;;;;11.82;6.15;;;3.50;99.90;;;;;;5056344;28;20144;-67
2023/01/18 11:45:58;;;;;;;8.07;5.32;;;3.50;99.90;;;;;;5072591;28;20056;-67
2023/01/18 11:48:48;;;;;;;10.27;6.00;;;3.50;99.90;;;;;;5073681;28;20094;-67
2023/01/18 11:51:22;;;;;;;5.55;5.00;;;3.60;99.90;;;;;;5073544;28;20080;-68
2023/01/18 11:53:57;;;;;;;5.50;4.63;;;3.70;99.90;;;;;;5073678;28;20496;-67
2023/01/18 11:56:47;;;;;;;6.93;5.00;;;3.70;99.90;;;;;;5055300;28;20048;-68
2023/01/18 11:59:28;;;;;;;4.82;4.32;;;3.80;99.90;;;;;;5073462;28;20041;-68
2023/01/18 12:02:12;;;;;;;7.85;4.45;;;3.90;99.90;;;;;;5073770;28;20086;-67
2023/01/18 12:04:43;;;;;;;7.22;6.55;;;3.80;99.90;;;;;;5073585;28;20048;-67
2023/01/18 12:08:09;;;;;;;8.30;5.00;;;3.90;99.90;;;;;;5073801;28;20040;-67
2023/01/18 12:11:19;;;;;;;6.82;5.18;;;3.90;99.90;;;;;;4991828;28;20050;-68
2023/01/18 12:13:58;;;;;;;7.15;4.80;;;3.90;99.90;;;;;;4991426;28;20046;-67
2023/01/18 12:16:48;;;;;;;6.60;4.72;;;3.90;99.90;;;;;;5073676;28;20058;-68
2023/01/18 12:19:33;;;;;;;7.32;4.72;;;4.00;99.90;;;;;;5073594;28;20041;-68
2023/01/18 12:22:29;;;;;;;4.82;4.20;;;4.10;99.90;;;;;;5055360;28;20055;-68
2023/01/18 12:25:04;;;;;;;6.35;3.80;;;4.10;99.90;;;;;;5073019;28;20044;-68
2023/01/18 12:27:56;;;;;;;5.80;4.50;;;4.20;99.90;;;;;;5072575;28;20086;-68
2023/01/18 12:31:01;;;;;;;5.85;4.22;;;4.10;99.90;;;;;;5072629;28;20496;-68
2023/01/18 12:33:39;;;;;;;7.03;3.97;;;4.20;99.90;;;;;;5073429;28;20414;-68
2023/01/18 12:36:16;;;;;;;5.65;3.70;;;4.40;99.90;;;;;;5073388;28;20107;-67
2023/01/18 12:38:52;;;;;;;8.90;4.63;;;4.30;99.90;;;;;;5073233;28;20087;-68
2023/01/18 12:41:30;;;;;;;4.57;4.18;;;4.30;99.90;;;;;;5073931;28;20040;-67
2023/01/18 12:44:29;;;;;;;10.15;3.65;;;4.40;99.90;;;;;;5073097;28;20041;-68
2023/01/18 12:47:16;;;;;;;6.45;3.47;;;4.40;99.90;;;;;;5073029;28;20132;-68
2023/01/18 12:49:51;;;;;;;6.30;3.95;;;4.40;99.90;;;;;;5055438;28;20032;-68
2023/01/18 12:52:20;;;;;;;5.55;3.80;;;4.40;99.90;;;;;;5073753;28;20040;-67
2023/01/18 12:55:00;;;;;;;7.63;3.53;;;4.50;99.90;;;;;;5072247;28;20044;-68
2023/01/18 12:57:28;;;;;;;6.40;4.30;;;4.50;99.90;;;;;;5072953;28;20091;-68
2023/01/18 13:00:00;;;;;;;4.78;3.88;;;4.50;99.90;;;;;;5072478;28;20108;-68
2023/01/18 13:02:32;;;;;;;6.03;3.65;;;4.50;99.90;;;;;;5073797;28;20041;-69
2023/01/18 13:05:22;;;;;;;5.03;3.72;;;4.50;99.90;;;;;;5055099;28;20123;-68
2023/01/18 13:07:57;;;;;;;5.63;4.72;;;4.50;99.90;;;;;;5072338;28;20611;-68
2023/01/18 13:10:27;;;;;;;5.10;3.75;;;4.50;99.90;;;;;;5072979;28;20110;-69
2023/01/18 13:12:55;;;;;;;7.70;4.28;;;4.50;99.90;;;;;;5072205;28;20063;-69
2023/01/18 13:15:41;;;;;;;4.38;3.83;;;4.50;99.90;;;;;;5058086;28;20373;-69
2023/01/18 13:18:33;;;;;;;5.40;4.50;;;4.40;99.90;;;;;;5059103;28;20045;-68
2023/01/18 13:21:36;;;;;;;5.60;3.90;;;4.50;99.90;;;;;;5045869;28;20057;-69
2023/01/18 13:24:15;;;;;;;4.78;4.30;;;4.50;99.90;;;;;;5077471;28;20048;-68
2023/01/18 13:26:41;;;;;;;6.25;4.22;;;4.50;99.90;;;;;;5077007;28;20052;-68
2023/01/18 13:29:28;;;;;;;5.43;4.50;;;4.40;99.90;;;;;;5058066;28;20055;-69
2023/01/18 13:31:55;;;;;;;5.18;3.95;;;4.40;99.90;;;;;;5059334;28;20091;-68
2023/01/18 13:34:29;;;;;;;6.75;4.07;;;4.30;99.90;;;;;;5076551;28;20141;-69
2023/01/18 13:36:57;;;;;;;6.57;4.63;;;4.30;99.90;;;;;;5060170;28;20392;-69
2023/01/18 13:39:24;;;;;;;5.20;4.70;;;4.20;99.90;;;;;;5058371;28;20046;-69
2023/01/18 13:42:18;;;;;;;6.10;4.47;;;4.30;99.90;;;;;;5076282;28;20055;-68
2023/01/18 13:44:46;;;;;;;7.07;3.97;;;4.20;99.90;;;;;;5076746;28;20087;-68
2023/01/18 13:47:45;;;;;;;5.50;3.97;;;4.20;99.90;;;;;;5077202;28;20457;-68
2023/01/18 13:50:30;;;;;;;5.47;3.80;;;4.20;99.90;;;;;;5058495;28;20045;-68
2023/01/18 13:53:13;;;;;;;4.32;3.92;;;4.20;99.90;;;;;;5077579;28;20044;-68